Time;durP1;ratioP1;P1;durP2;ratioP2;P2;SDS_P1;SDS_P2;PMS_P1;PMS_P2;Temp;Humidity;BMP_temperature;BMP_pressure;BME280_temperature;BME280_humidity;BME280_pressure;Samples;Min_cycle;Max_cycle;Signal;HPM_P1;HPM_P2
2021/04/26 00:01:37;;;;;;;9.23;4.43;;;12.60;69.50;;;11.92;49.73;101184.44;4074294;29;20048;-75
2021/04/26 00:03:38;;;;;;;8.13;3.83;;;12.70;69.60;;;12.06;49.51;101186.53;4074613;29;20024;-75
2021/04/26 00:05:39;;;;;;;6.53;4.07;;;12.60;69.60;;;12.01;49.58;101186.16;4074197;29;20024;-75
2021/04/26 00:07:40;;;;;;;7.25;4.57;;;12.50;69.70;;;12.07;49.63;101185.53;4074226;29;20028;-75
2021/04/26 00:09:41;;;;;;;5.97;3.30;;;12.50;69.60;;;12.14;49.42;101183.94;4074166;29;20027;-75
2021/04/26 00:11:42;;;;;;;7.38;3.60;;;12.50;69.80;;;12.21;49.05;101184.16;4074546;29;20444;-75
2021/04/26 00:13:43;;;;;;;5.95;4.25;;;12.60;69.50;;;12.08;49.14;101171.34;4074394;29;20087;-75
2021/04/26 00:15:44;;;;;;;7.18;4.47;;;12.60;69.90;;;12.08;49.48;101179.28;4074212;29;20048;-75
2021/04/26 00:17:47;;;;;;;9.10;4.25;;;12.60;69.30;;;11.91;49.23;101164.28;4074095;29;20032;-75
2021/04/26 00:19:48;;;;;;;5.03;3.70;;;12.60;69.10;;;11.90;49.83;101180.28;4088759;29;20114;-75
2021/04/26 00:21:49;;;;;;;8.30;4.15;;;12.60;69.60;;;12.00;49.64;101171.28;4073924;29;20424;-76
2021/04/26 00:23:50;;;;;;;5.63;3.80;;;12.60;69.70;;;11.82;49.93;101153.81;4088651;29;20031;-76
2021/04/26 00:25:51;;;;;;;8.10;3.85;;;12.50;69.90;;;11.82;50.01;101167.03;4072236;29;20028;-75
2021/04/26 00:27:52;;;;;;;7.97;3.88;;;12.50;69.80;;;11.79;49.92;101160.22;4088599;29;20038;-76
2021/04/26 00:29:53;;;;;;;6.25;3.97;;;12.40;69.70;;;11.91;49.43;101160.81;4072906;29;20566;-76
2021/04/26 00:31:54;;;;;;;7.25;4.40;;;12.40;69.60;;;11.79;50.17;101133.81;4073985;29;20032;-76
2021/04/26 00:33:55;;;;;;;7.15;4.13;;;12.40;70.10;;;11.81;50.27;101144.19;4073865;29;20016;-76
2021/04/26 00:35:56;;;;;;;6.68;4.53;;;12.40;70.30;;;11.82;50.90;101151.16;4073946;29;20032;-76
2021/04/26 00:37:57;;;;;;;8.23;4.45;;;12.40;70.80;;;11.80;51.11;101148.66;4088538;29;20028;-76
2021/04/26 00:39:58;;;;;;;7.57;5.07;;;12.30;71.10;;;11.74;51.59;101153.75;4074062;29;20395;-76
2021/04/26 00:41:59;;;;;;;6.95;4.85;;;12.30;71.70;;;11.78;51.72;101150.63;4074594;29;20488;-76
2021/04/26 00:44:00;;;;;;;6.65;4.28;;;12.30;72.20;;;11.61;52.42;101143.53;4085601;29;20107;-76
2021/04/26 00:46:01;;;;;;;9.32;4.90;;;12.30;72.80;;;11.53;52.89;101135.53;4088353;29;20032;-76
2021/04/26 00:48:02;;;;;;;8.50;4.70;;;12.20;73.00;;;11.66;52.44;101143.91;4073636;29;20484;-76
2021/04/26 00:50:08;;;;;;;7.90;4.93;;;12.20;73.20;;;11.53;53.42;101143.44;4076291;29;20035;-76
2021/04/26 00:52:09;;;;;;;9.02;5.55;;;12.30;73.60;;;11.32;53.77;101141.13;4072493;29;20111;-76
2021/04/26 00:54:10;;;;;;;8.40;5.20;;;12.10;73.70;;;11.36;53.83;101141.66;4088171;29;20035;-76
2021/04/26 00:56:11;;;;;;;8.35;4.78;;;12.10;74.00;;;11.24;53.63;101125.19;4073820;29;20024;-76
2021/04/26 00:58:12;;;;;;;8.82;5.00;;;12.00;74.00;;;11.44;53.53;101150.47;4088023;29;20067;-75
2021/04/26 01:00:15;;;;;;;8.70;5.05;;;12.00;73.90;;;11.32;53.76;101137.66;4073726;29;20032;-76
2021/04/26 01:02:16;;;;;;;7.93;4.90;;;12.00;74.20;;;11.21;54.22;101141.34;4073701;29;20036;-75
2021/04/26 01:04:17;;;;;;;10.57;5.63;;;11.90;74.30;;;11.21;54.30;101141.34;4088084;29;20125;-75
2021/04/26 01:06:18;;;;;;;8.55;5.60;;;11.80;74.50;;;11.05;54.64;101135.94;4072071;29;20036;-76
2021/04/26 01:08:19;;;;;;;8.57;4.97;;;11.80;74.30;;;11.19;54.04;101126.63;4088133;29;20034;-76
2021/04/26 01:10:25;;;;;;;8.25;5.43;;;11.70;74.50;;;11.34;54.00;101140.97;4072199;29;20039;-76
2021/04/26 01:12:55;;;;;;;11.73;5.80;;;11.80;75.00;;;11.30;53.84;101127.25;4073501;29;20024;-76
2021/04/26 01:15:18;;;;;;;8.48;5.35;;;11.80;74.40;;;11.22;54.03;101132.47;4086861;29;20032;-76
2021/04/26 01:17:28;;;;;;;9.27;5.50;;;11.90;74.40;;;11.17;53.92;101124.13;4073352;29;20039;-76
2021/04/26 01:20:38;;;;;;;11.80;6.00;;;11.80;74.40;;;11.25;54.12;101129.50;4087402;29;20039;-75
2021/04/26 01:23:14;;;;;;;8.73;5.13;;;11.80;74.70;;;11.09;53.91;101127.53;4066817;29;20036;-76
2021/04/26 01:25:18;;;;;;;9.55;5.20;;;11.80;74.30;;;11.15;53.75;101114.72;4087601;29;20046;-76
2021/04/26 01:27:58;;;;;;;10.85;5.78;;;11.70;74.50;;;11.17;53.71;101124.13;4103376;29;20028;-76
2021/04/26 01:30:13;;;;;;;9.60;5.68;;;11.70;74.50;;;11.07;53.46;101120.75;4089062;29;20116;-76
2021/04/26 01:32:44;;;;;;;9.35;5.97;;;11.70;73.90;;;11.06;53.78;101111.16;4088717;29;20142;-76
2021/04/26 01:34:48;;;;;;;9.00;5.38;;;11.70;74.10;;;10.94;53.75;101118.47;4102396;29;20027;-76
2021/04/26 01:36:50;;;;;;;8.80;5.83;;;11.60;74.00;;;10.87;54.19;101112.13;4086403;29;20043;-76
2021/04/26 01:38:54;;;;;;;10.45;6.47;;;11.60;74.30;;;10.98;53.56;101103.16;4103165;29;20032;-76
2021/04/26 01:40:57;;;;;;;;;;;11.60;74.30;;;10.91;53.63;101110.00;4089221;29;20028;-76
2021/04/26 01:43:00;;;;;;;9.45;6.30;;;11.60;73.90;;;10.97;53.55;101109.41;4088714;29;19966;-76
2021/04/26 01:45:04;;;;;;;11.05;6.10;;;11.50;73.80;;;10.73;53.67;101104.72;4087203;29;20542;-76
2021/04/26 01:47:10;;;;;;;8.38;5.22;;;11.50;73.90;;;10.90;53.31;101101.25;4073178;29;20064;-76
2021/04/26 01:49:13;;;;;;;8.90;5.47;;;11.50;74.00;;;10.85;53.56;101097.41;4072895;29;20404;-76
2021/04/26 01:51:15;;;;;;;8.82;6.15;;;11.50;73.70;;;10.94;53.28;101105.28;4076636;29;20024;-76
2021/04/26 01:53:19;;;;;;;10.57;6.05;;;11.40;73.90;;;10.75;52.98;101081.63;4100023;29;20479;-76
2021/04/26 01:55:24;;;;;;;9.30;6.10;;;11.50;73.70;;;10.92;53.31;101106.41;4103226;29;20136;-76
2021/04/26 01:57:27;;;;;;;11.57;6.05;;;11.50;73.90;;;10.62;53.41;101097.00;4088636;29;20376;-76
2021/04/26 01:59:29;;;;;;;12.80;6.17;;;11.50;73.50;;;10.67;53.67;101092.13;4102931;29;20027;-76
2021/04/26 02:01:31;;;;;;;14.93;7.30;;;11.40;73.70;;;10.77;53.64;101100.81;4103031;29;20274;-77
2021/04/26 02:03:34;;;;;;;8.85;6.13;;;11.40;73.80;;;10.68;54.10;101087.66;4088443;29;20035;-76
2021/04/26 02:05:35;;;;;;;8.55;5.97;;;11.40;74.10;;;10.87;53.31;101095.47;4102880;29;20039;-76
2021/04/26 02:07:37;;;;;;;9.63;5.88;;;11.30;73.90;;;10.75;53.38;101086.91;4102991;29;20031;-76
2021/04/26 02:09:39;;;;;;;9.95;6.18;;;11.40;73.80;;;10.82;53.32;101098.53;4102737;29;20031;-76
2021/04/26 02:11:40;;;;;;;10.82;5.88;;;11.30;73.90;;;10.77;53.85;101089.41;4103035;29;20027;-76
2021/04/26 02:13:44;;;;;;;8.32;5.97;;;11.40;74.20;;;10.83;53.34;101078.28;4102980;29;20027;-76
2021/04/26 02:15:47;;;;;;;9.98;6.15;;;11.30;73.70;;;10.81;53.07;101091.59;4103107;29;20442;-76
2021/04/26 02:17:50;;;;;;;11.10;5.93;;;11.30;73.60;;;10.76;53.54;101090.38;4088048;29;20035;-76
2021/04/26 02:19:51;;;;;;;13.02;6.22;;;11.30;73.80;;;10.76;53.21;101099.13;4103020;29;20063;-76
2021/04/26 02:21:52;;;;;;;9.27;6.35;;;11.40;73.70;;;10.71;53.22;101090.84;4087862;29;20038;-76
2021/04/26 02:23:54;;;;;;;9.40;6.50;;;11.30;73.70;;;10.73;53.15;101083.59;4088074;29;20499;-76
2021/04/26 02:25:55;;;;;;;9.88;6.65;;;11.30;73.70;;;10.78;53.92;101091.91;4087981;29;20028;-76
2021/04/26 02:27:57;;;;;;;13.77;7.70;;;11.20;74.30;;;10.66;53.34;101087.00;4088147;29;20448;-76
2021/04/26 02:29:58;;;;;;;11.65;6.10;;;11.30;74.10;;;10.47;53.68;101070.31;4088113;29;20131;-76
2021/04/26 02:32:07;;;;;;;13.32;5.68;;;11.20;74.00;;;10.57;53.60;101078.16;4088047;29;20032;-75
2021/04/26 02:34:32;;;;;;;9.93;6.13;;;11.20;74.20;;;10.54;54.10;101081.09;4102358;29;20110;-75
2021/04/26 02:36:38;;;;;;;8.63;6.05;;;11.20;73.90;;;10.44;53.64;101081.16;4087853;29;20051;-75
2021/04/26 02:38:46;;;;;;;9.70;6.25;;;11.10;73.80;;;10.50;53.64;101080.56;4102267;29;20032;-76
2021/04/26 02:41:07;;;;;;;11.60;6.38;;;11.10;74.10;;;10.38;53.00;101081.72;4102442;29;20039;-75
2021/04/26 02:43:09;;;;;;;11.57;6.55;;;11.10;73.80;;;10.41;53.83;101077.97;4100802;29;20054;-75
2021/04/26 02:45:18;;;;;;;8.60;6.18;;;11.10;74.30;;;10.31;54.17;101071.91;4086038;29;20062;-75
2021/04/26 02:47:22;;;;;;;11.85;6.72;;;11.10;74.20;;;10.22;54.61;101075.41;4071027;29;20028;-76
2021/04/26 02:49:25;;;;;;;9.85;6.93;;;11.00;74.30;;;10.26;53.99;101069.72;4077258;29;20074;-76
2021/04/26 02:51:30;;;;;;;15.07;6.93;;;10.90;74.30;;;10.36;54.40;101077.59;4095330;29;20031;-76
2021/04/26 02:53:34;;;;;;;7.63;6.03;;;10.90;74.60;;;10.46;54.10;101070.44;4091168;29;20082;-75
2021/04/26 02:55:35;;;;;;;9.70;5.85;;;10.90;74.60;;;10.54;53.45;101073.19;4093460;29;20019;-75
2021/04/26 02:57:38;;;;;;;12.77;6.63;;;10.90;74.40;;;10.47;53.31;101070.31;4107899;29;20042;-75
2021/04/26 02:59:40;;;;;;;10.38;6.07;;;11.00;74.40;;;10.52;53.58;101075.13;4093084;29;20034;-75
2021/04/26 03:01:43;;;;;;;10.48;6.05;;;11.00;74.40;;;10.37;53.92;101064.25;4107732;29;20035;-75
2021/04/26 03:03:45;;;;;;;11.10;6.82;;;11.00;74.20;;;10.25;53.80;101068.03;4091859;29;20031;-75
2021/04/26 03:05:50;;;;;;;8.18;5.75;;;10.90;74.30;;;10.31;53.97;101066.63;4091781;29;20042;-75
2021/04/26 03:07:51;;;;;;;11.50;6.43;;;10.80;74.60;;;10.14;54.81;101048.94;4093183;29;20028;-75
2021/04/26 03:09:55;;;;;;;9.35;6.55;;;10.80;75.20;;;9.95;55.32;101055.09;4107868;28;20035;-75
2021/04/26 03:11:57;;;;;;;10.30;6.68;;;10.80;74.90;;;10.21;54.74;101060.59;4107636;28;20023;-75
2021/04/26 03:14:00;;;;;;;10.52;6.43;;;10.70;75.10;;;10.20;54.65;101048.38;4093115;29;20039;-75
2021/04/26 03:16:02;;;;;;;9.43;6.40;;;10.80;75.40;;;10.00;55.00;101058.16;4093086;29;20035;-76
2021/04/26 03:18:03;;;;;;;9.70;6.70;;;10.70;75.00;;;9.95;55.36;101053.28;4093160;29;20035;-75
2021/04/26 03:20:12;;;;;;;10.73;6.15;;;10.60;75.20;;;9.87;54.70;101045.28;4107881;29;20023;-75
2021/04/26 03:22:14;;;;;;;9.07;6.20;;;10.60;75.30;;;9.93;55.99;101054.41;4107606;29;20091;-75
2021/04/26 03:24:19;;;;;;;10.10;6.80;;;10.60;75.90;;;10.11;55.72;101044.78;4107745;29;20047;-75
2021/04/26 03:26:19;;;;;;;13.65;6.13;;;10.60;76.30;;;10.17;55.26;101038.94;4093229;29;20488;-75
2021/04/26 03:28:22;;;;;;;9.65;6.53;;;10.60;76.30;;;10.03;55.72;101047.31;4107624;28;20038;-75
2021/04/26 03:30:26;;;;;;;8.05;6.50;;;10.60;76.10;;;9.80;56.31;101023.09;4093002;29;20031;-75
2021/04/26 03:32:28;;;;;;;10.25;6.78;;;10.60;76.80;;;9.86;56.51;101040.16;4107559;29;20027;-75
2021/04/26 03:34:31;;;;;;;9.60;6.72;;;10.50;76.80;;;9.80;56.60;101031.00;4107661;28;20039;-75
2021/04/26 03:36:32;;;;;;;9.55;7.00;;;10.40;77.00;;;9.61;56.79;101033.72;4107190;29;20028;-75
2021/04/26 03:38:33;;;;;;;10.85;6.82;;;10.40;77.30;;;9.59;57.79;101026.94;4092845;29;20043;-75
2021/04/26 03:40:37;;;;;;;11.10;6.78;;;10.40;77.60;;;9.54;57.30;101019.44;4107472;29;20414;-75
2021/04/26 03:42:38;;;;;;;11.77;7.07;;;10.30;77.90;;;9.48;57.59;101020.03;4092957;29;20051;-75
2021/04/26 03:44:39;;;;;;;10.10;7.30;;;10.30;77.90;;;9.53;58.04;101023.06;4091669;29;20047;-75
2021/04/26 03:47:00;;;;;;;11.23;7.60;;;10.30;78.50;;;9.55;57.51;101023.75;4079677;29;20039;-75
2021/04/26 03:49:01;;;;;;;9.82;7.22;;;10.20;78.40;;;9.60;58.07;101015.41;4077163;29;20056;-75
2021/04/26 03:51:02;;;;;;;13.15;7.22;;;10.20;78.80;;;9.44;58.10;101023.91;4080707;29;20169;-75
2021/04/26 03:53:03;;;;;;;13.02;8.18;;;10.10;78.40;;;9.54;58.05;101024.72;4086651;29;20523;-75
2021/04/26 03:55:06;;;;;;;11.00;6.78;;;10.20;78.50;;;9.61;57.51;101014.44;4092576;29;20027;-75
2021/04/26 03:57:07;;;;;;;14.75;8.32;;;10.20;78.80;;;9.44;58.06;101023.91;4092901;29;20083;-75
2021/04/26 03:59:08;;;;;;;11.18;6.45;;;10.20;78.40;;;9.39;58.08;101016.44;4092164;29;20039;-75
2021/04/26 04:01:09;;;;;;;10.48;7.25;;;10.10;78.70;;;9.33;58.97;101024.91;4103977;29;20426;-75
2021/04/26 04:03:10;;;;;;;10.95;7.63;;;10.10;79.00;;;9.33;59.12;101021.44;4088905;29;20035;-75
2021/04/26 04:05:12;;;;;;;14.43;7.30;;;10.10;79.20;;;9.25;58.57;101005.53;4090059;29;20035;-76
2021/04/26 04:07:13;;;;;;;10.45;7.28;;;10.10;79.20;;;9.26;59.32;101015.06;4104806;29;20525;-76
2021/04/26 04:09:15;;;;;;;10.90;6.85;;;10.00;79.20;;;9.34;58.79;101020.47;4090037;29;20063;-76
2021/04/26 04:11:16;;;;;;;12.63;7.53;;;10.00;79.60;;;9.17;58.71;101015.94;4090100;29;20046;-76
2021/04/26 04:13:17;;;;;;;11.13;7.53;;;9.90;79.70;;;9.24;58.37;101024.91;4104769;29;20031;-76
2021/04/26 04:15:17;;;;;;;11.35;7.15;;;9.90;79.60;;;9.12;58.95;101026.88;4090100;29;20028;-75
2021/04/26 04:17:18;;;;;;;15.18;8.75;;;9.80;79.70;;;9.08;59.46;101000.97;4089964;29;20123;-76
2021/04/26 04:19:19;;;;;;;11.60;7.90;;;9.80;80.20;;;9.32;58.60;101007.44;4089877;29;20032;-75
2021/04/26 04:21:21;;;;;;;16.83;8.63;;;9.80;80.20;;;9.31;58.83;101007.59;4104489;29;20066;-75
2021/04/26 04:23:21;;;;;;;13.13;7.40;;;9.90;80.00;;;9.23;59.33;101020.59;4073036;29;20071;-75
2021/04/26 04:25:22;;;;;;;9.57;7.20;;;9.80;80.00;;;9.24;59.03;100990.69;4089981;29;20043;-75
2021/04/26 04:27:23;;;;;;;13.65;8.27;;;9.90;80.40;;;9.07;59.97;101010.66;4104526;29;20062;-76
2021/04/26 04:29:24;;;;;;;10.38;6.60;;;9.80;80.40;;;9.13;59.58;101014.53;4089918;29;20032;-75
2021/04/26 04:31:26;;;;;;;11.15;7.82;;;9.70;80.50;;;9.33;59.06;101011.75;4089936;29;20059;-76
2021/04/26 04:33:27;;;;;;;11.27;7.65;;;9.80;80.80;;;8.83;60.20;101002.38;4089743;29;20036;-75
2021/04/26 04:35:28;;;;;;;10.50;6.85;;;9.70;80.50;;;9.02;60.87;101014.69;4104095;29;20027;-76
2021/04/26 04:37:29;;;;;;;13.55;7.97;;;9.70;81.20;;;9.10;59.45;101005.13;4089852;29;20034;-75
2021/04/26 04:39:30;;;;;;;11.43;7.95;;;9.70;81.00;;;8.98;60.26;101010.66;4089956;29;20043;-75
2021/04/26 04:41:30;;;;;;;10.32;7.65;;;9.60;81.00;;;8.92;60.91;101016.50;4089927;29;20035;-75
2021/04/26 04:43:32;;;;;;;14.48;7.85;;;9.60;81.50;;;8.73;60.75;101015.50;4089009;29;20032;-75
2021/04/26 04:45:32;;;;;;;12.52;7.65;;;9.50;81.40;;;8.76;61.25;100996.81;4074082;29;20514;-75
2021/04/26 04:47:33;;;;;;;10.18;7.70;;;9.50;82.20;;;8.83;61.18;101008.47;4073922;29;20064;-75
2021/04/26 04:49:34;;;;;;;11.13;7.57;;;9.50;81.90;;;8.87;60.92;101009.84;4074286;29;20044;-75
2021/04/26 04:51:36;;;;;;;12.00;7.63;;;9.50;82.00;;;8.90;61.29;101017.44;4076543;29;20066;-75
2021/04/26 04:53:37;;;;;;;8.90;7.10;;;9.50;81.90;;;8.72;60.62;101007.78;4089563;29;20024;-76
2021/04/26 04:55:38;;;;;;;10.07;7.60;;;9.40;81.70;;;8.80;61.16;101006.13;4089584;29;20475;-75
2021/04/26 04:57:39;;;;;;;13.57;8.30;;;9.50;82.10;;;8.75;61.29;101000.41;4089236;29;20184;-75
2021/04/26 04:59:40;;;;;;;10.45;7.25;;;9.50;82.10;;;8.81;60.54;101006.94;4089468;29;20063;-76
2021/04/26 05:01:40;;;;;;;11.55;7.75;;;9.40;82.00;;;8.88;60.21;101006.25;4089271;29;20403;-75
2021/04/26 05:03:41;;;;;;;13.25;8.23;;;9.50;81.50;;;8.81;60.67;101009.56;4089434;29;20518;-76
2021/04/26 05:05:42;;;;;;;10.48;7.03;;;9.50;81.70;;;8.81;61.17;101002.50;4089401;29;20032;-75
2021/04/26 05:07:43;;;;;;;11.13;8.30;;;9.40;81.90;;;8.70;60.38;101001.78;4089241;29;20042;-75
2021/04/26 05:09:44;;;;;;;10.00;7.22;;;9.50;81.50;;;8.58;61.60;101010.78;4089001;29;20035;-74
2021/04/26 05:11:46;;;;;;;12.18;7.75;;;9.40;82.10;;;8.64;61.01;101008.44;4089249;29;20027;-75
2021/04/26 05:13:47;;;;;;;11.27;8.00;;;9.30;82.00;;;8.80;61.28;101014.00;4089281;29;20118;-75
2021/04/26 05:15:48;;;;;;;11.27;7.65;;;9.30;82.10;;;8.78;61.07;101021.19;4089253;29;20035;-75
2021/04/26 05:17:52;;;;;;;12.63;7.72;;;9.40;82.30;;;8.65;60.94;101009.28;4089036;29;20035;-75
2021/04/26 05:19:54;;;;;;;10.32;7.63;;;9.30;82.00;;;8.56;61.90;101013.56;4103688;29;20031;-75
2021/04/26 05:21:55;;;;;;;13.68;7.80;;;9.30;82.20;;;8.59;61.11;101009.81;4087692;29;20042;-75
2021/04/26 05:23:56;;;;;;;10.05;6.90;;;9.30;82.20;;;8.37;62.43;101018.78;4089013;29;20035;-76
2021/04/26 05:25:57;;;;;;;14.75;7.63;;;9.20;82.40;;;8.49;62.62;101017.69;4088854;29;20405;-75
2021/04/26 05:27:58;;;;;;;11.98;7.30;;;9.30;82.90;;;8.53;61.47;101024.34;4087690;29;20110;-76
2021/04/26 05:29:59;;;;;;;16.85;7.80;;;9.20;82.50;;;8.41;62.28;101019.34;4088903;29;20107;-77
2021/04/26 05:32:01;;;;;;;12.73;6.78;;;9.20;82.70;;;8.48;62.29;101018.69;4089053;29;20032;-76
2021/04/26 05:34:02;;;;;;;9.68;7.50;;;9.20;82.70;;;8.51;61.87;101015.75;4088856;29;20020;-76
2021/04/26 05:36:04;;;;;;;9.93;7.55;;;9.20;82.90;;;8.46;61.41;101030.28;4088649;29;20107;-77
2021/04/26 05:38:15;;;;;;;11.02;7.00;;;9.20;82.50;;;8.52;61.68;101012.16;4096716;29;20027;-76
2021/04/26 05:40:16;;;;;;;12.45;6.93;;;9.20;82.80;;;8.56;61.67;101024.06;4085569;29;20063;-77
2021/04/26 05:42:17;;;;;;;13.30;8.13;;;9.20;82.90;;;8.59;61.68;101021.19;4088520;29;20476;-76
2021/04/26 05:44:18;;;;;;;14.57;7.55;;;9.30;82.90;;;8.48;62.44;101020.47;4082393;29;20476;-77
2021/04/26 05:46:19;;;;;;;11.85;7.15;;;9.20;83.40;;;8.77;61.88;101019.53;4072642;29;20028;-77
2021/04/26 05:48:20;;;;;;;13.32;7.45;;;9.30;83.70;;;8.63;61.28;101013.84;4072875;29;20119;-76
2021/04/26 05:50:21;;;;;;;11.90;6.97;;;9.40;82.70;;;8.46;61.88;101001.34;4091127;29;20122;-77
2021/04/26 05:52:22;;;;;;;11.88;7.45;;;9.40;82.90;;;8.71;61.86;101009.56;4078697;29;20197;-78
2021/04/26 05:54:23;;;;;;;12.90;7.32;;;9.30;83.00;;;8.60;61.69;101012.31;4088437;29;20050;-76
2021/04/26 05:56:24;;;;;;;11.18;6.82;;;9.40;82.90;;;8.68;62.20;101014.25;4088189;29;20028;-76
2021/04/26 05:58:25;;;;;;;12.00;7.95;;;9.40;83.00;;;8.66;62.00;101021.47;4088300;29;20384;-76
2021/04/26 06:00:26;;;;;;;11.02;7.65;;;9.50;83.00;;;8.76;62.63;101023.13;4088608;29;20056;-76
2021/04/26 06:02:27;;;;;;;11.77;7.88;;;9.50;83.30;;;8.79;62.08;101011.50;4084022;29;20039;-73
2021/04/26 06:04:28;;;;;;;12.02;8.02;;;9.50;83.50;;;8.58;61.99;101024.75;4080270;29;20040;-73
2021/04/26 06:06:29;;;;;;;15.02;7.93;;;9.60;82.60;;;8.73;62.05;101019.94;4075997;29;20130;-73
2021/04/26 06:08:30;;;;;;;10.45;8.02;;;9.60;83.00;;;8.76;62.29;101017.88;4082202;29;20511;-73
2021/04/26 06:10:31;;;;;;;10.15;6.90;;;9.50;83.00;;;8.76;62.42;101022.28;4080959;29;20020;-73
2021/04/26 06:12:33;;;;;;;11.35;7.45;;;9.60;82.90;;;8.75;62.62;101005.66;4087808;29;20059;-73
2021/04/26 06:14:34;;;;;;;13.35;7.90;;;9.60;83.30;;;9.01;61.82;101013.03;4102446;29;20027;-73
2021/04/26 06:16:36;;;;;;;14.73;7.85;;;9.70;83.00;;;8.79;62.96;101017.59;4087655;29;20507;-74
2021/04/26 06:18:37;;;;;;;11.40;7.53;;;9.70;83.10;;;8.83;62.80;101019.00;4088062;29;20054;-74
2021/04/26 06:20:44;;;;;;;11.55;7.45;;;9.70;83.00;;;8.83;61.97;101024.25;4087281;29;20036;-75
2021/04/26 06:22:45;;;;;;;13.00;8.10;;;9.70;82.80;;;8.76;63.14;101022.28;4087078;29;20039;-74
2021/04/26 06:24:46;;;;;;;9.25;7.68;;;9.70;83.80;;;8.73;62.11;101015.50;4087510;29;20396;-74
2021/04/26 06:26:46;;;;;;;13.48;8.55;;;9.70;83.00;;;8.72;61.85;101011.22;4087669;29;20066;-75
2021/04/26 06:28:47;;;;;;;12.82;8.02;;;9.70;82.90;;;8.61;62.97;101011.34;4102488;29;20051;-75
2021/04/26 06:30:48;;;;;;;13.75;7.97;;;9.60;82.80;;;8.66;62.96;101011.75;4075536;29;20024;-73
2021/04/26 06:32:49;;;;;;;15.30;8.77;;;9.70;83.70;;;8.56;62.58;101010.94;4072299;29;20036;-73
2021/04/26 06:34:51;;;;;;;11.93;8.30;;;9.70;83.10;;;8.78;62.17;101004.59;4072246;29;20024;-73
2021/04/26 06:36:52;;;;;;;14.70;7.47;;;9.60;83.30;;;8.81;62.71;101015.66;4071843;29;20059;-73
2021/04/26 06:38:53;;;;;;;13.63;7.50;;;9.70;83.40;;;8.79;63.05;101012.34;4072030;29;20036;-73
2021/04/26 06:40:54;;;;;;;13.32;8.48;;;9.70;83.40;;;8.85;62.30;101010.94;4072344;29;20020;-73
2021/04/26 06:42:55;;;;;;;10.70;7.22;;;9.80;83.00;;;9.22;62.56;101014.53;4080419;29;20028;-74
2021/04/26 06:44:56;;;;;;;14.13;8.65;;;9.80;83.80;;;9.08;62.13;101011.50;4076398;29;20056;-74
2021/04/26 06:46:57;;;;;;;11.40;8.15;;;9.90;83.20;;;9.35;61.48;101014.22;4086372;29;20031;-74
2021/04/26 06:48:59;;;;;;;13.68;8.63;;;10.10;82.90;;;9.33;62.05;101005.63;4072261;29;20032;-73
2021/04/26 06:50:59;;;;;;;10.32;8.05;;;10.20;83.10;;;9.37;61.71;101017.56;4075556;29;20052;-73
2021/04/26 06:53:00;;;;;;;12.18;8.25;;;10.20;82.20;;;9.49;60.43;101013.78;4083213;29;20027;-73
2021/04/26 06:55:01;;;;;;;11.45;7.93;;;10.30;81.70;;;9.33;60.40;101010.91;4087650;29;20055;-73
2021/04/26 06:57:02;;;;;;;11.77;7.43;;;10.30;81.00;;;9.08;61.09;101016.78;4087547;29;20028;-73
2021/04/26 06:59:03;;;;;;;9.70;7.07;;;10.30;81.00;;;9.22;60.63;101013.69;4087868;29;20038;-72
2021/04/26 07:01:04;;;;;;;11.32;7.72;;;10.30;80.70;;;9.37;60.31;101022.81;4087929;29;20031;-72
2021/04/26 07:03:05;;;;;;;11.52;8.07;;;10.30;81.50;;;9.65;60.49;101018.44;4087586;29;20099;-72
2021/04/26 07:05:09;;;;;;;14.63;8.50;;;10.50;81.90;;;9.47;60.03;101017.53;4087653;29;20522;-73
2021/04/26 07:07:10;;;;;;;12.27;8.18;;;10.50;81.40;;;9.38;61.18;101020.03;4102245;29;20077;-73
2021/04/26 07:09:11;;;;;;;15.70;8.70;;;10.50;81.30;;;9.63;60.07;101020.41;4087750;29;20060;-73
2021/04/26 07:11:11;;;;;;;11.18;7.70;;;10.60;81.40;;;9.63;60.45;101029.13;4102353;29;20595;-73
2021/04/26 07:13:12;;;;;;;11.98;7.72;;;10.60;80.70;;;9.75;60.09;101022.72;4087818;29;20040;-73
2021/04/26 07:15:15;;;;;;;11.32;8.20;;;10.80;81.00;;;9.65;60.44;101024.53;4087651;29;20028;-73
2021/04/26 07:17:16;;;;;;;11.13;7.63;;;10.80;81.20;;;9.85;59.41;101030.59;4087461;29;20091;-73
2021/04/26 07:19:17;;;;;;;10.00;8.40;;;10.90;80.20;;;9.87;59.70;101029.47;4087552;29;20038;-73
2021/04/26 07:21:18;;;;;;;15.75;8.20;;;10.90;80.20;;;9.87;59.42;101029.47;4087547;29;20071;-72
2021/04/26 07:23:19;;;;;;;12.65;7.97;;;11.00;80.10;;;9.94;59.46;101035.00;4087790;29;20043;-73
2021/04/26 07:25:20;;;;;;;13.50;7.60;;;11.00;79.90;;;9.82;59.95;101023.81;4102396;29;20549;-73
2021/04/26 07:27:21;;;;;;;15.73;8.07;;;11.10;80.10;;;9.70;60.38;101027.59;4087376;29;20038;-73
2021/04/26 07:29:22;;;;;;;15.85;8.15;;;11.10;80.30;;;9.94;58.70;101027.94;4087848;29;20110;-75
2021/04/26 07:31:23;;;;;;;15.60;8.23;;;11.10;79.30;;;9.86;59.86;101029.59;4087744;29;20034;-73
2021/04/26 07:33:24;;;;;;;12.18;8.73;;;11.10;79.50;;;9.90;59.27;101028.34;4086404;29;20024;-73
2021/04/26 07:35:25;;;;;;;11.38;8.10;;;11.10;79.50;;;9.96;60.63;101033.88;4088453;29;20038;-73
2021/04/26 07:37:26;;;;;;;10.23;8.23;;;11.20;80.80;;;10.20;59.38;101028.13;4090439;29;20488;-72
2021/04/26 07:39:31;;;;;;;12.27;7.07;;;11.30;79.80;;;10.23;58.50;101021.72;4090668;29;20032;-73
2021/04/26 07:41:32;;;;;;;12.13;8.00;;;11.40;79.00;;;10.52;58.48;101025.00;4089320;29;20066;-73
2021/04/26 07:43:33;;;;;;;13.35;8.23;;;11.60;79.70;;;10.41;58.65;101035.78;4089145;29;20526;-73
2021/04/26 07:45:34;;;;;;;17.58;8.50;;;11.70;79.00;;;10.43;57.70;101016.19;4086955;29;20039;-73
2021/04/26 07:47:35;;;;;;;12.63;7.57;;;11.70;78.20;;;10.40;58.08;101023.56;4089019;29;20163;-73
2021/04/26 07:49:36;;;;;;;14.18;7.65;;;11.80;78.00;;;10.19;59.03;101029.09;4075171;29;20029;-73
2021/04/26 07:51:37;;;;;;;13.57;8.40;;;11.80;78.00;;;10.38;58.87;101025.53;4077549;29;20040;-73
2021/04/26 07:53:38;;;;;;;11.95;8.27;;;11.80;78.50;;;10.33;57.86;101027.78;4090326;29;20098;-74
2021/04/26 07:55:39;;;;;;;10.98;7.95;;;11.90;77.50;;;10.52;57.68;101009.19;4090470;29;20027;-74
2021/04/26 07:57:40;;;;;;;11.18;8.45;;;11.90;78.20;;;10.50;57.56;101029.59;4104788;29;20066;-73
2021/04/26 07:59:41;;;;;;;14.05;7.70;;;12.00;77.10;;;10.42;57.30;101029.53;4090372;29;20059;-74
2021/04/26 08:01:42;;;;;;;15.20;9.05;;;12.00;76.70;;;10.56;58.01;101034.28;4090268;29;20094;-73
2021/04/26 08:03:43;;;;;;;14.00;8.75;;;12.00;77.70;;;11.08;57.01;101033.47;4090203;29;20384;-75
2021/04/26 08:05:44;;;;;;;15.95;8.55;;;12.30;77.40;;;11.34;54.95;101024.78;4089728;29;20028;-74
2021/04/26 08:07:45;;;;;;;12.88;8.40;;;12.60;75.10;;;11.27;55.88;101002.59;4089971;29;20047;-71
2021/04/26 08:09:46;;;;;;;16.38;8.40;;;12.90;75.70;;;10.96;55.88;101016.19;4089940;29;20035;-71
2021/04/26 08:11:47;;;;;;;16.85;8.35;;;12.90;74.60;;;11.20;56.76;101018.22;4089961;29;20032;-71
2021/04/26 08:13:47;;;;;;;13.73;8.05;;;12.90;75.90;;;11.06;56.66;101018.75;4090110;29;20028;-71
2021/04/26 08:15:48;;;;;;;14.38;7.53;;;12.80;75.60;;;11.58;55.75;101022.31;4089966;29;20368;-71
2021/04/26 08:17:49;;;;;;;13.90;7.93;;;12.90;75.90;;;11.64;55.00;101016.41;4104901;29;20059;-71
2021/04/26 08:19:50;;;;;;;10.90;7.55;;;13.10;75.40;;;11.13;55.88;101014.53;4088709;29;20059;-71
2021/04/26 08:21:51;;;;;;;11.82;8.70;;;13.10;74.50;;;11.47;55.75;101018.09;4088696;29;20028;-71
2021/04/26 08:23:56;;;;;;;10.40;7.82;;;13.10;75.10;;;11.26;56.05;101022.88;4090075;29;20032;-71
2021/04/26 08:25:57;;;;;;;13.02;8.10;;;13.10;74.90;;;11.17;55.35;101002.69;4089862;29;20046;-71
2021/04/26 08:27:58;;;;;;;16.30;8.57;;;13.10;73.90;;;11.42;54.88;101022.19;4089813;29;20035;-71
2021/04/26 08:29:59;;;;;;;14.77;8.38;;;13.10;73.80;;;11.03;55.50;101008.50;4089886;29;20023;-71
2021/04/26 08:32:00;;;;;;;16.15;8.88;;;13.00;73.80;;;10.98;56.34;101021.34;4089841;29;20036;-71